createdAt,value
2023-03-24T00:01:26.757Z,65.04
2023-03-24T00:03:54.925Z,66.41
2023-03-24T00:06:23.207Z,62.71
2023-03-24T00:08:51.276Z,57.79
2023-03-24T00:11:21.398Z,56.11
2023-03-24T00:13:50.771Z,56.82
2023-03-24T00:16:20.259Z,57.68
2023-03-24T00:18:52.989Z,58.58
2023-03-24T00:21:24.757Z,59.17
2023-03-24T00:23:58.702Z,59.71
2023-03-24T00:26:26.811Z,60.29
2023-03-24T00:28:55.747Z,60.84
2023-03-24T00:31:24.754Z,61.37
2023-03-24T00:33:53.870Z,61.79
2023-03-24T00:36:24.480Z,64.93
2023-03-24T00:38:53.696Z,66.18
2023-03-24T00:41:22.265Z,62.86
2023-03-24T00:43:51.418Z,58.36
2023-03-24T00:46:28.731Z,56.40
2023-03-24T00:49:06.488Z,56.85
2023-03-24T00:51:37.918Z,57.48
2023-03-24T00:54:09.379Z,58.26
2023-03-24T00:56:40.496Z,58.99
2023-03-24T00:59:10.448Z,59.73
2023-03-24T01:01:41.038Z,60.01
2023-03-24T01:04:10.450Z,60.66
2023-03-24T01:06:39.977Z,61.17
2023-03-24T01:09:08.616Z,61.68
2023-03-24T01:11:40.417Z,64.94
2023-03-24T01:14:09.875Z,66.20
2023-03-24T01:16:38.316Z,62.50
2023-03-24T01:19:07.136Z,57.83
2023-03-24T01:21:37.008Z,56.20
2023-03-24T01:24:05.974Z,56.91
2023-03-24T01:26:34.360Z,57.50
2023-03-24T01:29:02.300Z,58.46
2023-03-24T01:31:30.544Z,59.15
2023-03-24T01:33:58.759Z,59.78
2023-03-24T01:36:26.931Z,60.18
2023-03-24T01:38:58.461Z,60.82
2023-03-24T01:41:29.056Z,61.34
2023-03-24T01:43:57.041Z,61.82
2023-03-24T01:46:26.699Z,65.11
2023-03-24T01:48:55.018Z,66.13
2023-03-24T01:51:30.633Z,62.43
2023-03-24T01:54:07.609Z,57.88
2023-03-24T01:56:39.983Z,56.15
2023-03-24T01:59:19.569Z,56.90
2023-03-24T02:02:08.148Z,57.63
2023-03-24T02:05:04.331Z,58.45
2023-03-24T02:08:02.956Z,59.40
2023-03-24T02:10:36.645Z,60.25
2023-03-24T02:13:06.587Z,61.00
2023-03-24T02:15:40.886Z,61.65
2023-03-24T02:18:27.715Z,64.22
2023-03-24T02:21:25.246Z,66.44
2023-03-24T02:24:02.221Z,61.87
2023-03-24T02:27:07.772Z,57.14
2023-03-24T02:29:52.516Z,55.95
2023-03-24T02:32:31.691Z,56.83
2023-03-24T02:35:24.024Z,58.14
2023-03-24T02:38:17.154Z,58.78
2023-03-24T02:41:14.882Z,59.43
2023-03-24T02:43:46.509Z,60.05
2023-03-24T02:46:25.465Z,60.89
2023-03-24T02:48:59.239Z,61.10
2023-03-24T02:51:33.433Z,61.59
2023-03-24T02:54:07.762Z,65.24
2023-03-24T02:56:48.156Z,65.51
2023-03-24T02:59:31.377Z,61.91
2023-03-24T03:02:05.314Z,56.85
2023-03-24T03:04:58.513Z,55.35
2023-03-24T03:07:33.471Z,56.11
2023-03-24T03:10:24.594Z,56.77
2023-03-24T03:12:55.372Z,57.58
2023-03-24T03:15:26.794Z,58.42
2023-03-24T03:18:21.236Z,59.01
2023-03-24T03:20:53.309Z,59.23
2023-03-24T03:23:28.399Z,60.08
2023-03-24T03:26:05.752Z,60.69
2023-03-24T03:28:37.166Z,61.31
2023-03-24T03:35:31.090Z,64.35
2023-03-24T03:38:08.692Z,59.96
2023-03-24T03:40:40.644Z,55.98
2023-03-24T03:43:14.305Z,55.74
2023-03-24T03:45:42.698Z,56.68
2023-03-24T03:48:11.743Z,57.86
2023-03-24T03:50:39.704Z,58.87
2023-03-24T03:53:09.584Z,59.86
2023-03-24T03:55:41.800Z,60.16
2023-03-24T03:58:10.633Z,60.88
2023-03-24T04:00:44.432Z,61.53
2023-03-24T04:03:44.473Z,65.77
2023-03-24T04:06:57.542Z,65.41
2023-03-24T04:09:38.186Z,61.19
2023-03-24T04:12:29.031Z,56.62
2023-03-24T04:15:42.131Z,55.94
2023-03-24T04:19:24.282Z,57.06
2023-03-24T04:22:15.394Z,57.96
2023-03-24T04:24:44.314Z,58.82
2023-03-24T04:27:31.872Z,59.72
2023-03-24T04:30:16.908Z,60.16
2023-03-24T04:32:46.574Z,60.97
2023-03-24T04:35:33.790Z,61.81
2023-03-24T04:38:38.384Z,66.93
2023-03-24T04:41:47.626Z,64.31
2023-03-24T04:44:24.455Z,60.28
2023-03-24T04:47:08.853Z,55.98
2023-03-24T04:49:40.440Z,55.36
2023-03-24T04:52:17.916Z,56.09
2023-03-24T04:54:46.907Z,57.04
2023-03-24T04:57:15.754Z,57.75
2023-03-24T04:59:47.380Z,58.47
2023-03-24T05:02:16.673Z,59.20
2023-03-24T05:04:54.254Z,59.73
2023-03-24T05:07:28.864Z,60.52
2023-03-24T05:09:59.218Z,61.11
2023-03-24T05:12:27.750Z,64.19
2023-03-24T05:15:16.786Z,65.67
2023-03-24T05:17:45.182Z,62.18
2023-03-24T05:20:15.234Z,57.63
2023-03-24T05:22:45.786Z,55.75
2023-03-24T05:25:13.741Z,56.36
2023-03-24T05:27:42.140Z,57.35
2023-03-24T05:30:36.045Z,57.97
2023-03-24T05:33:12.447Z,58.89
2023-03-24T05:35:40.885Z,59.59
2023-03-24T05:38:09.481Z,60.04
2023-03-24T05:40:38.538Z,60.45
2023-03-24T05:43:13.389Z,60.77
2023-03-24T05:45:48.033Z,61.38
2023-03-24T05:48:26.071Z,61.62
2023-03-24T05:51:11.597Z,64.77
2023-03-24T05:53:39.637Z,65.02
2023-03-24T05:56:12.195Z,62.05
2023-03-24T05:59:33.717Z,57.54
2023-03-24T06:02:25.355Z,55.70
2023-03-24T06:05:01.788Z,56.30
2023-03-24T06:07:30.841Z,57.07
2023-03-24T06:10:02.962Z,57.92
2023-03-24T06:12:36.086Z,58.30
2023-03-24T06:15:05.355Z,59.49
2023-03-24T06:17:34.214Z,59.84
2023-03-24T06:20:15.059Z,60.21
2023-03-24T06:23:09.259Z,61.08
2023-03-24T06:25:52.582Z,61.38
2023-03-24T06:28:30.376Z,61.51
2023-03-24T06:31:00.713Z,64.42
2023-03-24T06:33:34.642Z,64.18
2023-03-24T06:36:03.060Z,60.12
2023-03-24T06:38:32.246Z,57.29
2023-03-24T06:41:04.425Z,57.37
2023-03-24T06:43:33.020Z,57.70
2023-03-24T06:46:01.236Z,59.20
2023-03-24T06:48:29.652Z,59.09
2023-03-24T06:51:04.115Z,59.33
2023-03-24T06:53:41.307Z,59.89
2023-03-24T06:56:09.643Z,60.52
2023-03-24T06:58:43.891Z,61.35
2023-03-24T07:01:17.165Z,61.08
2023-03-24T07:03:55.357Z,61.48
2023-03-24T07:06:26.292Z,61.93
2023-03-24T07:08:58.028Z,61.80
2023-03-24T07:11:32.483Z,63.83
2023-03-24T07:14:02.488Z,65.02
2023-03-24T07:16:33.465Z,59.77
2023-03-24T07:19:40.086Z,55.81
2023-03-24T07:22:46.741Z,55.53
2023-03-24T07:25:35.077Z,57.20
2023-03-24T07:28:16.060Z,57.59
2023-03-24T07:30:44.238Z,58.92
2023-03-24T07:33:13.064Z,59.25
2023-03-24T07:35:43.587Z,59.58
2023-03-24T07:38:12.309Z,60.69
2023-03-24T07:40:41.115Z,61.15
2023-03-24T07:43:18.870Z,61.66
2023-03-24T07:46:13.490Z,62.04
2023-03-24T07:48:42.571Z,63.83
2023-03-24T07:51:11.088Z,62.90
2023-03-24T07:53:58.979Z,58.98
2023-03-24T07:56:39.133Z,57.01
2023-03-24T07:59:09.782Z,57.63
2023-03-24T08:01:57.701Z,57.96
2023-03-24T08:04:53.842Z,58.74
2023-03-24T08:07:45.048Z,59.14
2023-03-24T08:10:15.292Z,59.81
2023-03-24T08:12:43.258Z,60.08
2023-03-24T08:15:11.337Z,60.14
2023-03-24T08:17:39.737Z,60.38
2023-03-24T08:20:14.425Z,60.33
2023-03-24T08:22:44.658Z,60.46
2023-03-24T08:25:13.235Z,60.53
2023-03-24T08:27:43.472Z,60.28
2023-03-24T08:30:15.088Z,60.23
2023-03-24T08:32:55.574Z,60.17
2023-03-24T08:35:26.321Z,60.03
2023-03-24T08:37:54.288Z,59.36
2023-03-24T08:40:24.379Z,58.91
2023-03-24T08:42:57.426Z,58.73
2023-03-24T08:45:30.833Z,57.91
2023-03-24T08:48:01.407Z,58.31
2023-03-24T08:50:34.577Z,57.89
2023-03-24T08:53:04.162Z,57.89
2023-03-24T08:55:32.278Z,57.89
2023-03-24T08:58:00.855Z,57.75
2023-03-24T14:02:43.796Z,58.37
2023-03-24T14:05:31.326Z,58.53
2023-03-24T14:07:59.215Z,58.72
2023-03-24T14:10:37.124Z,58.83
2023-03-24T14:13:19.576Z,58.90
2023-03-24T14:15:58.093Z,59.01
2023-03-24T14:18:26.587Z,59.25
2023-03-24T14:20:57.457Z,59.29
2023-03-24T14:23:37.630Z,59.47
2023-03-24T14:26:08.488Z,59.62
2023-03-24T14:28:44.095Z,59.50
2023-03-24T14:31:17.578Z,59.22
2023-03-24T14:33:54.710Z,59.25
2023-03-24T14:36:43.594Z,59.11
2023-03-24T14:39:11.733Z,59.16
2023-03-24T14:41:41.657Z,59.11
2023-03-24T14:44:10.233Z,59.20
2023-03-24T14:46:48.540Z,59.04
2023-03-24T14:49:19.261Z,58.82
2023-03-24T14:51:55.263Z,58.47
2023-03-24T14:54:36.148Z,58.44
2023-03-24T14:57:05.014Z,58.26
2023-03-24T14:59:48.610Z,58.18
2023-03-24T15:02:37.752Z,58.21
2023-03-24T15:05:15.646Z,58.06
2023-03-24T15:07:44.961Z,57.97
2023-03-24T15:10:21.359Z,57.80
2023-03-24T15:12:49.644Z,57.88
2023-03-24T15:15:20.553Z,57.88
2023-03-24T15:17:50.140Z,57.72
2023-03-24T15:20:28.944Z,57.33
2023-03-24T15:22:57.054Z,57.26
2023-03-24T15:25:27.131Z,56.81
2023-03-24T15:27:57.673Z,56.94
2023-03-24T15:30:26.108Z,57.05
2023-03-24T15:32:55.001Z,56.70
2023-03-24T15:35:24.287Z,56.92
2023-03-24T15:37:55.423Z,56.76
2023-03-24T15:40:26.469Z,56.84
2023-03-24T15:42:56.667Z,56.80
2023-03-24T15:45:32.210Z,56.50
2023-03-24T15:48:09.204Z,56.26
2023-03-24T15:51:16.834Z,56.35
2023-03-24T15:53:55.428Z,56.11
2023-03-24T15:56:31.612Z,55.99
2023-03-24T15:59:05.856Z,55.66
2023-03-24T16:01:36.521Z,55.60
2023-03-24T16:04:19.265Z,55.18
2023-03-24T16:06:53.717Z,55.22
2023-03-24T16:09:27.283Z,55.13
2023-03-24T16:11:55.616Z,55.03
2023-03-24T16:14:25.890Z,54.90
2023-03-24T16:16:59.568Z,54.67
2023-03-24T16:19:28.653Z,54.35
2023-03-24T16:21:56.951Z,54.45
2023-03-24T16:24:24.868Z,54.24
2023-03-24T16:26:52.739Z,54.23
2023-03-24T16:29:22.993Z,54.25
2023-03-24T16:31:53.211Z,54.22
2023-03-24T16:34:22.777Z,54.38
2023-03-24T16:36:52.490Z,54.35
2023-03-24T16:39:25.711Z,54.42
2023-03-24T16:41:53.648Z,54.32
2023-03-24T16:44:21.859Z,54.46
2023-03-24T16:46:52.075Z,54.62
2023-03-24T16:49:21.160Z,54.75
2023-03-24T16:51:49.277Z,54.77
2023-03-24T16:54:18.018Z,54.93
2023-03-24T16:56:45.893Z,54.95
2023-03-24T16:59:15.586Z,54.89
2023-03-24T17:01:46.181Z,55.09
2023-03-24T17:04:17.319Z,55.28
2023-03-24T17:06:49.314Z,55.61
2023-03-24T17:09:17.708Z,57.94
2023-03-24T17:11:49.204Z,59.80
2023-03-24T17:14:17.586Z,60.69
2023-03-24T17:16:48.359Z,63.54
2023-03-24T17:19:18.624Z,60.72
2023-03-24T17:21:56.768Z,60.87
2023-03-24T17:24:25.669Z,58.01
2023-03-24T17:26:55.402Z,57.57
2023-03-24T17:29:23.543Z,58.49
2023-03-24T17:31:53.754Z,59.70
2023-03-24T17:34:22.431Z,60.82
2023-03-24T17:36:51.843Z,61.42
2023-03-24T17:39:21.094Z,62.01
2023-03-24T17:41:49.387Z,62.52
2023-03-24T17:44:17.358Z,63.32
2023-03-24T17:46:45.409Z,59.03
2023-03-24T17:49:13.974Z,57.60
2023-03-24T17:51:42.003Z,57.69
2023-03-24T17:54:13.865Z,59.20
2023-03-24T17:56:41.848Z,59.73
2023-03-24T17:59:10.062Z,59.94
2023-03-24T18:01:39.608Z,60.64
2023-03-24T18:04:08.162Z,60.94
2023-03-24T18:06:38.587Z,62.57
2023-03-24T18:09:07.502Z,63.63
2023-03-24T18:11:36.001Z,64.82
2023-03-24T18:14:04.249Z,62.42
2023-03-24T18:16:35.098Z,57.73
2023-03-24T18:19:03.875Z,56.23
2023-03-24T18:21:32.285Z,57.42
2023-03-24T18:24:00.402Z,58.26
2023-03-24T18:26:29.549Z,59.62
2023-03-24T18:28:57.521Z,60.66
2023-03-24T18:31:28.660Z,63.14
2023-03-24T18:34:28.747Z,65.02
2023-03-24T18:37:09.538Z,62.67
2023-03-24T18:39:39.356Z,59.36
2023-03-24T18:42:07.861Z,57.89
2023-03-24T18:44:36.159Z,59.38
2023-03-24T18:47:05.822Z,59.50
2023-03-24T18:49:33.672Z,60.34
2023-03-24T18:52:01.584Z,61.29
2023-03-24T18:54:29.524Z,65.69
2023-03-24T18:57:00.675Z,66.52
2023-03-24T18:59:28.934Z,63.13
2023-03-24T19:01:58.362Z,60.49
2023-03-24T19:04:27.475Z,57.49
2023-03-24T19:07:00.597Z,56.89
2023-03-24T19:09:29.103Z,57.50
2023-03-24T19:11:57.298Z,59.40
2023-03-24T19:14:26.586Z,59.59
2023-03-24T19:16:59.775Z,60.75
2023-03-24T19:19:31.869Z,64.11
2023-03-24T19:22:00.243Z,65.58
2023-03-24T19:24:28.717Z,62.72
2023-03-24T19:26:56.760Z,61.22
2023-03-24T19:29:24.870Z,57.59
2023-03-24T19:31:52.952Z,56.40
2023-03-24T19:34:25.061Z,57.30
2023-03-24T19:36:56.406Z,58.62
2023-03-24T19:39:26.249Z,58.70
2023-03-24T19:41:54.585Z,60.64
2023-03-24T19:44:22.793Z,61.56
2023-03-24T19:46:50.835Z,65.92
2023-03-24T19:49:19.013Z,66.02
2023-03-24T19:51:47.371Z,62.98
2023-03-24T19:54:15.628Z,60.06
2023-03-24T19:56:46.743Z,56.84
2023-03-24T19:59:14.769Z,56.27
2023-03-24T20:01:43.366Z,57.18
2023-03-24T20:04:13.954Z,58.91
2023-03-24T20:06:44.020Z,59.76
2023-03-24T20:09:13.037Z,60.46
2023-03-24T20:11:41.351Z,61.30
2023-03-24T20:14:09.963Z,65.12
2023-03-24T20:16:37.947Z,65.27
2023-03-24T20:19:06.016Z,61.88
2023-03-24T20:21:36.917Z,58.03
2023-03-24T20:24:06.361Z,56.85
2023-03-24T20:26:34.548Z,58.35
2023-03-24T20:29:02.513Z,59.61
2023-03-24T20:31:30.566Z,60.01
2023-03-24T20:33:59.235Z,60.87
2023-03-24T20:36:27.301Z,61.55
2023-03-24T20:38:59.446Z,65.24
2023-03-24T20:41:29.601Z,65.80
2023-03-24T20:43:57.795Z,62.22
2023-03-24T20:46:26.300Z,58.21
2023-03-24T20:48:57.201Z,57.02
2023-03-24T20:51:25.881Z,57.91
2023-03-24T20:53:54.192Z,59.13
2023-03-24T20:56:28.067Z,60.11
2023-03-24T20:58:56.206Z,61.27
2023-03-24T21:01:24.804Z,64.78
2023-03-24T21:03:53.719Z,65.79
2023-03-24T21:06:21.995Z,61.95
2023-03-24T21:08:49.909Z,59.83
2023-03-24T21:11:17.904Z,56.24
2023-03-24T21:13:46.485Z,55.76
2023-03-24T21:16:14.541Z,57.13
2023-03-24T21:18:43.987Z,58.29
2023-03-24T21:21:13.133Z,59.20
2023-03-24T21:23:42.393Z,59.25
2023-03-24T21:26:14.430Z,60.75
2023-03-24T21:28:42.784Z,62.05
2023-03-24T21:31:19.707Z,64.60
2023-03-24T21:33:48.545Z,62.20
2023-03-24T21:36:17.515Z,58.88
2023-03-24T21:38:46.003Z,56.74
2023-03-24T21:41:14.035Z,57.68
2023-03-24T21:43:42.188Z,58.84
2023-03-24T21:46:14.980Z,60.60
2023-03-24T21:48:50.201Z,61.23
2023-03-24T21:51:24.108Z,60.83
2023-03-24T21:53:59.331Z,61.77
2023-03-24T21:56:27.383Z,65.64
2023-03-24T21:58:55.652Z,65.49
2023-03-24T22:01:24.084Z,62.61
2023-03-24T22:03:54.367Z,59.93
2023-03-24T22:06:22.865Z,56.01
2023-03-24T22:08:53.020Z,56.18
2023-03-24T22:11:21.218Z,58.09
2023-03-24T22:13:49.276Z,59.15
2023-03-24T22:16:17.436Z,60.19
2023-03-24T22:18:47.240Z,64.33
2023-03-24T22:21:18.074Z,65.13
2023-03-24T22:23:46.433Z,62.14
2023-03-24T22:26:16.820Z,59.91
2023-03-24T22:28:45.579Z,56.65
2023-03-24T22:31:16.334Z,56.41
2023-03-24T22:33:44.880Z,57.39
2023-03-24T22:36:12.816Z,58.48
2023-03-24T22:38:41.052Z,60.10
2023-03-24T22:41:11.860Z,60.44
2023-03-24T22:43:41.000Z,60.94
2023-03-24T22:46:10.994Z,64.49
2023-03-24T22:48:42.516Z,65.73
2023-03-24T22:51:12.623Z,63.07
2023-03-24T22:53:40.672Z,59.76
2023-03-24T22:56:09.764Z,56.56
2023-03-24T22:58:40.034Z,56.12
2023-03-24T23:01:09.073Z,56.87
2023-03-24T23:03:37.024Z,58.54
2023-03-24T23:06:07.129Z,59.23
2023-03-24T23:08:37.535Z,60.07
2023-03-24T23:11:06.933Z,61.26
2023-03-24T23:13:35.984Z,64.10
2023-03-24T23:16:05.251Z,64.97
2023-03-24T23:18:33.219Z,61.59
2023-03-24T23:21:09.500Z,57.80
2023-03-24T23:23:38.682Z,56.39
2023-03-24T23:26:07.873Z,57.20
2023-03-24T23:28:36.071Z,58.38
2023-03-24T23:31:15.934Z,59.57
2023-03-24T23:33:47.041Z,60.26
2023-03-24T23:36:17.792Z,60.82
2023-03-24T23:38:50.667Z,61.57
2023-03-24T23:41:19.371Z,64.96
2023-03-24T23:43:49.158Z,65.91
2023-03-24T23:46:18.341Z,62.21
2023-03-24T23:48:46.597Z,58.16
2023-03-24T23:51:16.444Z,56.59
2023-03-24T23:53:44.437Z,57.57
2023-03-24T23:56:14.252Z,58.59
2023-03-24T23:58:42.712Z,60.20
